sensor_id;sensor_type;location;lat;lon;timestamp;P1;durP1;ratioP1;P2;durP2;ratioP2
44774;SDS011;31340;51.402;0.016;2023-12-28T00:00:38;37.42;;;6.65;;
44774;SDS011;31340;51.402;0.016;2023-12-28T00:03:06;42.83;;;7.18;;
44774;SDS011;31340;51.402;0.016;2023-12-28T00:05:34;34.65;;;6.25;;
44774;SDS011;31340;51.402;0.016;2023-12-28T00:08:03;33.35;;;5.97;;
44774;SDS011;31340;51.402;0.016;2023-12-28T00:10:31;39.78;;;5.90;;
44774;SDS011;31340;51.402;0.016;2023-12-28T00:12:59;33.55;;;6.68;;
44774;SDS011;31340;51.402;0.016;2023-12-28T00:15:27;36.38;;;5.45;;
44774;SDS011;31340;51.402;0.016;2023-12-28T00:17:55;45.55;;;6.65;;
44774;SDS011;31340;51.402;0.016;2023-12-28T00:20:23;40.70;;;6.85;;
44774;SDS011;31340;51.402;0.016;2023-12-28T00:22:51;39.90;;;7.20;;
44774;SDS011;31340;51.402;0.016;2023-12-28T00:25:20;47.60;;;6.43;;
44774;SDS011;31340;51.402;0.016;2023-12-28T00:27:47;36.70;;;6.15;;
44774;SDS011;31340;51.402;0.016;2023-12-28T00:30:15;42.80;;;7.28;;
44774;SDS011;31340;51.402;0.016;2023-12-28T00:32:44;37.28;;;5.82;;
44774;SDS011;31340;51.402;0.016;2023-12-28T00:35:13;44.97;;;5.88;;
44774;SDS011;31340;51.402;0.016;2023-12-28T00:37:41;40.05;;;6.38;;
44774;SDS011;31340;51.402;0.016;2023-12-28T00:40:11;41.60;;;5.95;;
44774;SDS011;31340;51.402;0.016;2023-12-28T00:42:39;44.92;;;6.32;;
44774;SDS011;31340;51.402;0.016;2023-12-28T00:45:08;39.65;;;6.88;;
44774;SDS011;31340;51.402;0.016;2023-12-28T00:47:37;46.17;;;6.68;;
44774;SDS011;31340;51.402;0.016;2023-12-28T00:50:06;37.33;;;7.18;;
44774;SDS011;31340;51.402;0.016;2023-12-28T00:52:34;44.13;;;7.05;;
44774;SDS011;31340;51.402;0.016;2023-12-28T00:55:02;44.00;;;6.82;;
44774;SDS011;31340;51.402;0.016;2023-12-28T00:57:32;53.13;;;8.55;;
44774;SDS011;31340;51.402;0.016;2023-12-28T01:00:00;38.28;;;6.63;;
44774;SDS011;31340;51.402;0.016;2023-12-28T01:02:30;36.80;;;6.63;;
44774;SDS011;31340;51.402;0.016;2023-12-28T01:04:59;48.83;;;6.95;;
44774;SDS011;31340;51.402;0.016;2023-12-28T01:07:26;38.63;;;6.65;;
44774;SDS011;31340;51.402;0.016;2023-12-28T01:09:54;37.97;;;6.90;;
44774;SDS011;31340;51.402;0.016;2023-12-28T01:12:24;50.13;;;7.28;;
44774;SDS011;31340;51.402;0.016;2023-12-28T01:14:53;54.20;;;7.47;;
44774;SDS011;31340;51.402;0.016;2023-12-28T01:17:21;55.67;;;7.32;;
44774;SDS011;31340;51.402;0.016;2023-12-28T01:19:49;48.20;;;8.15;;
44774;SDS011;31340;51.402;0.016;2023-12-28T01:22:17;51.72;;;8.85;;
44774;SDS011;31340;51.402;0.016;2023-12-28T01:24:48;61.45;;;7.53;;
44774;SDS011;31340;51.402;0.016;2023-12-28T01:27:17;50.35;;;7.85;;
44774;SDS011;31340;51.402;0.016;2023-12-28T01:29:45;45.53;;;6.18;;
44774;SDS011;31340;51.402;0.016;2023-12-28T01:32:15;50.88;;;7.30;;
44774;SDS011;31340;51.402;0.016;2023-12-28T01:34:43;51.15;;;6.78;;
44774;SDS011;31340;51.402;0.016;2023-12-28T01:37:14;47.58;;;8.23;;
44774;SDS011;31340;51.402;0.016;2023-12-28T01:39:42;57.83;;;9.02;;
44774;SDS011;31340;51.402;0.016;2023-12-28T01:42:10;46.00;;;6.63;;
44774;SDS011;31340;51.402;0.016;2023-12-28T01:44:38;48.05;;;7.32;;
44774;SDS011;31340;51.402;0.016;2023-12-28T01:47:06;44.90;;;7.10;;
44774;SDS011;31340;51.402;0.016;2023-12-28T01:49:34;43.65;;;6.80;;
44774;SDS011;31340;51.402;0.016;2023-12-28T01:52:03;49.30;;;8.02;;
44774;SDS011;31340;51.402;0.016;2023-12-28T01:54:33;49.00;;;8.50;;
44774;SDS011;31340;51.402;0.016;2023-12-28T01:57:03;48.40;;;7.80;;
44774;SDS011;31340;51.402;0.016;2023-12-28T01:59:32;56.58;;;7.57;;
44774;SDS011;31340;51.402;0.016;2023-12-28T02:02:00;48.15;;;7.30;;
44774;SDS011;31340;51.402;0.016;2023-12-28T02:04:28;58.72;;;8.95;;
44774;SDS011;31340;51.402;0.016;2023-12-28T02:06:57;55.13;;;9.18;;
44774;SDS011;31340;51.402;0.016;2023-12-28T02:09:30;43.63;;;9.05;;
44774;SDS011;31340;51.402;0.016;2023-12-28T02:11:58;43.25;;;7.30;;
44774;SDS011;31340;51.402;0.016;2023-12-28T02:14:26;53.45;;;8.38;;
44774;SDS011;31340;51.402;0.016;2023-12-28T02:20:05;51.13;;;8.05;;
44774;SDS011;31340;51.402;0.016;2023-12-28T02:22:35;53.55;;;7.78;;
44774;SDS011;31340;51.402;0.016;2023-12-28T02:27:36;57.70;;;8.23;;
44774;SDS011;31340;51.402;0.016;2023-12-28T02:30:08;48.15;;;7.30;;
44774;SDS011;31340;51.402;0.016;2023-12-28T02:35:29;52.95;;;9.32;;
44774;SDS011;31340;51.402;0.016;2023-12-28T02:38:04;56.60;;;8.27;;
44774;SDS011;31340;51.402;0.016;2023-12-28T02:40:42;46.53;;;8.10;;
44774;SDS011;31340;51.402;0.016;2023-12-28T02:43:12;54.92;;;9.75;;
44774;SDS011;31340;51.402;0.016;2023-12-28T02:45:53;46.42;;;7.03;;
44774;SDS011;31340;51.402;0.016;2023-12-28T02:48:26;55.63;;;9.88;;
44774;SDS011;31340;51.402;0.016;2023-12-28T02:50:54;48.10;;;7.60;;
44774;SDS011;31340;51.402;0.016;2023-12-28T02:53:23;45.72;;;8.00;;
44774;SDS011;31340;51.402;0.016;2023-12-28T02:55:51;45.17;;;6.80;;
44774;SDS011;31340;51.402;0.016;2023-12-28T02:58:20;43.35;;;6.03;;
44774;SDS011;31340;51.402;0.016;2023-12-28T03:00:48;38.22;;;6.70;;
44774;SDS011;31340;51.402;0.016;2023-12-28T03:03:22;48.80;;;7.57;;
44774;SDS011;31340;51.402;0.016;2023-12-28T03:05:55;50.95;;;8.10;;
44774;SDS011;31340;51.402;0.016;2023-12-28T03:08:26;47.15;;;7.97;;
44774;SDS011;31340;51.402;0.016;2023-12-28T03:10:57;49.38;;;8.38;;
44774;SDS011;31340;51.402;0.016;2023-12-28T03:13:28;41.53;;;7.45;;
44774;SDS011;31340;51.402;0.016;2023-12-28T03:15:57;51.00;;;7.18;;
44774;SDS011;31340;51.402;0.016;2023-12-28T03:18:36;58.63;;;7.40;;
44774;SDS011;31340;51.402;0.016;2023-12-28T03:21:07;46.25;;;7.15;;
44774;SDS011;31340;51.402;0.016;2023-12-28T03:23:36;46.63;;;8.00;;
44774;SDS011;31340;51.402;0.016;2023-12-28T03:26:11;40.67;;;5.80;;
44774;SDS011;31340;51.402;0.016;2023-12-28T03:28:40;40.50;;;7.38;;
44774;SDS011;31340;51.402;0.016;2023-12-28T03:31:08;47.15;;;7.32;;
44774;SDS011;31340;51.402;0.016;2023-12-28T03:33:43;46.40;;;7.30;;
44774;SDS011;31340;51.402;0.016;2023-12-28T03:36:18;43.20;;;6.78;;
44774;SDS011;31340;51.402;0.016;2023-12-28T03:38:48;45.55;;;7.25;;
44774;SDS011;31340;51.402;0.016;2023-12-28T03:41:29;45.30;;;6.80;;
44774;SDS011;31340;51.402;0.016;2023-12-28T03:46:27;44.67;;;7.47;;
44774;SDS011;31340;51.402;0.016;2023-12-28T03:48:55;43.33;;;6.93;;
44774;SDS011;31340;51.402;0.016;2023-12-28T03:51:25;44.03;;;8.05;;
44774;SDS011;31340;51.402;0.016;2023-12-28T03:53:57;47.85;;;6.90;;
44774;SDS011;31340;51.402;0.016;2023-12-28T03:56:27;40.55;;;6.95;;
44774;SDS011;31340;51.402;0.016;2023-12-28T03:58:59;53.03;;;9.27;;
44774;SDS011;31340;51.402;0.016;2023-12-28T04:01:29;49.90;;;8.35;;
44774;SDS011;31340;51.402;0.016;2023-12-28T04:04:04;68.05;;;8.32;;
44774;SDS011;31340;51.402;0.016;2023-12-28T04:06:42;51.13;;;8.30;;
44774;SDS011;31340;51.402;0.016;2023-12-28T04:09:11;51.45;;;8.48;;
44774;SDS011;31340;51.402;0.016;2023-12-28T04:11:41;57.22;;;8.80;;
44774;SDS011;31340;51.402;0.016;2023-12-28T04:14:12;51.10;;;7.40;;
44774;SDS011;31340;51.402;0.016;2023-12-28T04:16:40;64.65;;;8.88;;
44774;SDS011;31340;51.402;0.016;2023-12-28T04:19:17;52.05;;;8.25;;
44774;SDS011;31340;51.402;0.016;2023-12-28T04:21:51;52.13;;;9.13;;
44774;SDS011;31340;51.402;0.016;2023-12-28T04:24:23;53.20;;;8.50;;
44774;SDS011;31340;51.402;0.016;2023-12-28T04:26:54;50.63;;;9.68;;
44774;SDS011;31340;51.402;0.016;2023-12-28T04:29:22;63.05;;;8.68;;
44774;SDS011;31340;51.402;0.016;2023-12-28T04:31:52;54.65;;;9.63;;
44774;SDS011;31340;51.402;0.016;2023-12-28T04:34:23;55.08;;;8.90;;
44774;SDS011;31340;51.402;0.016;2023-12-28T04:36:55;43.58;;;8.27;;
44774;SDS011;31340;51.402;0.016;2023-12-28T04:39:24;51.20;;;7.47;;
44774;SDS011;31340;51.402;0.016;2023-12-28T04:41:56;63.08;;;7.70;;
44774;SDS011;31340;51.402;0.016;2023-12-28T04:44:28;45.85;;;8.45;;
44774;SDS011;31340;51.402;0.016;2023-12-28T04:46:58;48.83;;;7.22;;
44774;SDS011;31340;51.402;0.016;2023-12-28T04:49:29;42.67;;;6.68;;
44774;SDS011;31340;51.402;0.016;2023-12-28T04:51:57;43.78;;;7.32;;
44774;SDS011;31340;51.402;0.016;2023-12-28T04:54:32;42.25;;;6.78;;
44774;SDS011;31340;51.402;0.016;2023-12-28T04:57:03;38.83;;;6.40;;
44774;SDS011;31340;51.402;0.016;2023-12-28T04:59:32;50.65;;;6.50;;
44774;SDS011;31340;51.402;0.016;2023-12-28T05:02:00;44.88;;;7.22;;
44774;SDS011;31340;51.402;0.016;2023-12-28T05:04:36;40.97;;;7.53;;
44774;SDS011;31340;51.402;0.016;2023-12-28T05:07:10;44.53;;;7.13;;
44774;SDS011;31340;51.402;0.016;2023-12-28T05:09:38;44.67;;;6.90;;
44774;SDS011;31340;51.402;0.016;2023-12-28T05:12:06;37.65;;;6.32;;
44774;SDS011;31340;51.402;0.016;2023-12-28T05:14:35;36.45;;;7.40;;
44774;SDS011;31340;51.402;0.016;2023-12-28T05:17:03;49.33;;;7.90;;
44774;SDS011;31340;51.402;0.016;2023-12-28T05:19:31;51.33;;;7.53;;
44774;SDS011;31340;51.402;0.016;2023-12-28T05:22:03;39.65;;;7.07;;
44774;SDS011;31340;51.402;0.016;2023-12-28T05:24:35;50.50;;;7.50;;
44774;SDS011;31340;51.402;0.016;2023-12-28T05:27:04;42.33;;;7.13;;
44774;SDS011;31340;51.402;0.016;2023-12-28T05:29:36;49.63;;;8.20;;
44774;SDS011;31340;51.402;0.016;2023-12-28T05:32:12;43.05;;;7.43;;
44774;SDS011;31340;51.402;0.016;2023-12-28T05:34:40;58.17;;;7.72;;
44774;SDS011;31340;51.402;0.016;2023-12-28T05:37:15;48.33;;;8.45;;
44774;SDS011;31340;51.402;0.016;2023-12-28T05:39:46;64.65;;;10.30;;
44774;SDS011;31340;51.402;0.016;2023-12-28T05:42:15;42.65;;;7.50;;
44774;SDS011;31340;51.402;0.016;2023-12-28T05:44:46;52.95;;;7.95;;
44774;SDS011;31340;51.402;0.016;2023-12-28T05:47:15;65.38;;;7.57;;
44774;SDS011;31340;51.402;0.016;2023-12-28T05:49:47;49.63;;;9.32;;
44774;SDS011;31340;51.402;0.016;2023-12-28T05:52:24;46.92;;;8.32;;
44774;SDS011;31340;51.402;0.016;2023-12-28T05:54:56;46.65;;;7.50;;
44774;SDS011;31340;51.402;0.016;2023-12-28T05:57:30;50.20;;;8.10;;
44774;SDS011;31340;51.402;0.016;2023-12-28T06:00:01;48.78;;;8.32;;
44774;SDS011;31340;51.402;0.016;2023-12-28T06:02:41;39.78;;;6.88;;
44774;SDS011;31340;51.402;0.016;2023-12-28T06:05:11;36.72;;;6.93;;
44774;SDS011;31340;51.402;0.016;2023-12-28T06:07:40;45.33;;;7.70;;
44774;SDS011;31340;51.402;0.016;2023-12-28T06:10:10;35.58;;;7.43;;
44774;SDS011;31340;51.402;0.016;2023-12-28T06:12:38;44.80;;;7.15;;
44774;SDS011;31340;51.402;0.016;2023-12-28T06:15:11;45.92;;;7.75;;
44774;SDS011;31340;51.402;0.016;2023-12-28T06:17:39;47.63;;;6.22;;
44774;SDS011;31340;51.402;0.016;2023-12-28T06:22:40;50.72;;;7.15;;
44774;SDS011;31340;51.402;0.016;2023-12-28T06:25:10;51.45;;;8.43;;
44774;SDS011;31340;51.402;0.016;2023-12-28T06:27:46;61.92;;;8.38;;
44774;SDS011;31340;51.402;0.016;2023-12-28T06:30:15;38.35;;;6.88;;
44774;SDS011;31340;51.402;0.016;2023-12-28T06:32:46;50.30;;;7.60;;
44774;SDS011;31340;51.402;0.016;2023-12-28T06:35:28;33.33;;;5.50;;
44774;SDS011;31340;51.402;0.016;2023-12-28T06:37:59;35.88;;;6.18;;
44774;SDS011;31340;51.402;0.016;2023-12-28T06:40:27;37.88;;;5.55;;
44774;SDS011;31340;51.402;0.016;2023-12-28T06:42:56;45.45;;;7.22;;
44774;SDS011;31340;51.402;0.016;2023-12-28T06:45:25;45.78;;;7.32;;
44774;SDS011;31340;51.402;0.016;2023-12-28T06:47:57;43.30;;;6.38;;
44774;SDS011;31340;51.402;0.016;2023-12-28T06:50:26;41.55;;;6.65;;
44774;SDS011;31340;51.402;0.016;2023-12-28T06:52:57;38.45;;;7.47;;
44774;SDS011;31340;51.402;0.016;2023-12-28T06:55:25;49.08;;;9.40;;
44774;SDS011;31340;51.402;0.016;2023-12-28T06:58:01;44.05;;;7.15;;
44774;SDS011;31340;51.402;0.016;2023-12-28T07:00:34;49.63;;;8.43;;
44774;SDS011;31340;51.402;0.016;2023-12-28T07:03:02;61.67;;;7.97;;
44774;SDS011;31340;51.402;0.016;2023-12-28T07:05:33;59.15;;;9.00;;
44774;SDS011;31340;51.402;0.016;2023-12-28T07:08:01;61.03;;;8.80;;
44774;SDS011;31340;51.402;0.016;2023-12-28T07:10:35;56.25;;;10.07;;
44774;SDS011;31340;51.402;0.016;2023-12-28T07:13:06;63.55;;;10.00;;
44774;SDS011;31340;51.402;0.016;2023-12-28T07:15:37;57.22;;;9.15;;
44774;SDS011;31340;51.402;0.016;2023-12-28T07:18:07;57.42;;;10.57;;
44774;SDS011;31340;51.402;0.016;2023-12-28T07:20:47;54.42;;;8.57;;
44774;SDS011;31340;51.402;0.016;2023-12-28T07:23:16;59.90;;;8.88;;
44774;SDS011;31340;51.402;0.016;2023-12-28T07:25:44;66.60;;;9.40;;
44774;SDS011;31340;51.402;0.016;2023-12-28T07:28:13;57.40;;;10.45;;
44774;SDS011;31340;51.402;0.016;2023-12-28T07:30:41;69.07;;;10.80;;
44774;SDS011;31340;51.402;0.016;2023-12-28T07:33:10;62.35;;;8.60;;
44774;SDS011;31340;51.402;0.016;2023-12-28T07:35:41;62.22;;;9.93;;
44774;SDS011;31340;51.402;0.016;2023-12-28T07:38:13;64.40;;;8.98;;
44774;SDS011;31340;51.402;0.016;2023-12-28T07:40:43;63.35;;;10.13;;
44774;SDS011;31340;51.402;0.016;2023-12-28T07:43:16;70.95;;;9.68;;
44774;SDS011;31340;51.402;0.016;2023-12-28T07:45:46;62.38;;;10.30;;
44774;SDS011;31340;51.402;0.016;2023-12-28T07:48:26;56.35;;;9.80;;
44774;SDS011;31340;51.402;0.016;2023-12-28T07:50:54;65.90;;;9.48;;
44774;SDS011;31340;51.402;0.016;2023-12-28T07:53:22;69.22;;;8.38;;
44774;SDS011;31340;51.402;0.016;2023-12-28T07:58:22;70.20;;;8.57;;
44774;SDS011;31340;51.402;0.016;2023-12-28T08:00:50;55.08;;;9.50;;
44774;SDS011;31340;51.402;0.016;2023-12-28T08:03:19;62.03;;;9.80;;
44774;SDS011;31340;51.402;0.016;2023-12-28T08:08:27;61.45;;;9.02;;
44774;SDS011;31340;51.402;0.016;2023-12-28T08:11:04;60.65;;;8.35;;
44774;SDS011;31340;51.402;0.016;2023-12-28T08:13:31;58.83;;;7.60;;
44774;SDS011;31340;51.402;0.016;2023-12-28T08:16:09;59.20;;;8.77;;
44774;SDS011;31340;51.402;0.016;2023-12-28T08:18:40;52.55;;;9.38;;
44774;SDS011;31340;51.402;0.016;2023-12-28T08:23:41;67.45;;;9.85;;
44774;SDS011;31340;51.402;0.016;2023-12-28T08:26:09;57.22;;;9.32;;
44774;SDS011;31340;51.402;0.016;2023-12-28T08:28:45;52.38;;;8.85;;
44774;SDS011;31340;51.402;0.016;2023-12-28T08:31:17;62.33;;;8.95;;
44774;SDS011;31340;51.402;0.016;2023-12-28T08:33:49;64.32;;;10.63;;
44774;SDS011;31340;51.402;0.016;2023-12-28T08:36:20;52.70;;;8.57;;
44774;SDS011;31340;51.402;0.016;2023-12-28T08:38:49;65.07;;;9.40;;
44774;SDS011;31340;51.402;0.016;2023-12-28T08:41:20;63.60;;;10.48;;
44774;SDS011;31340;51.402;0.016;2023-12-28T08:43:54;62.72;;;9.52;;
44774;SDS011;31340;51.402;0.016;2023-12-28T08:46:28;49.72;;;10.70;;
44774;SDS011;31340;51.402;0.016;2023-12-28T08:49:02;62.60;;;9.05;;
44774;SDS011;31340;51.402;0.016;2023-12-28T08:51:30;50.67;;;9.57;;
44774;SDS011;31340;51.402;0.016;2023-12-28T08:53:59;73.72;;;11.27;;
44774;SDS011;31340;51.402;0.016;2023-12-28T08:56:27;60.50;;;10.52;;
44774;SDS011;31340;51.402;0.016;2023-12-28T08:59:01;61.90;;;10.35;;
44774;SDS011;31340;51.402;0.016;2023-12-28T09:01:31;70.40;;;10.20;;
44774;SDS011;31340;51.402;0.016;2023-12-28T09:03:59;61.65;;;9.10;;
44774;SDS011;31340;51.402;0.016;2023-12-28T09:06:30;63.28;;;8.98;;
44774;SDS011;31340;51.402;0.016;2023-12-28T09:08:59;58.88;;;7.85;;
44774;SDS011;31340;51.402;0.016;2023-12-28T09:11:29;52.88;;;9.07;;
44774;SDS011;31340;51.402;0.016;2023-12-28T09:13:58;43.35;;;8.98;;
44774;SDS011;31340;51.402;0.016;2023-12-28T09:16:27;58.10;;;10.20;;
44774;SDS011;31340;51.402;0.016;2023-12-28T09:18:55;66.80;;;10.27;;
44774;SDS011;31340;51.402;0.016;2023-12-28T09:21:25;51.25;;;9.95;;
44774;SDS011;31340;51.402;0.016;2023-12-28T09:23:54;59.72;;;8.82;;
44774;SDS011;31340;51.402;0.016;2023-12-28T09:26:22;61.10;;;9.45;;
44774;SDS011;31340;51.402;0.016;2023-12-28T09:28:50;57.58;;;8.48;;
44774;SDS011;31340;51.402;0.016;2023-12-28T09:31:22;51.63;;;8.57;;
44774;SDS011;31340;51.402;0.016;2023-12-28T09:33:50;65.47;;;10.73;;
44774;SDS011;31340;51.402;0.016;2023-12-28T09:36:19;53.90;;;7.10;;
44774;SDS011;31340;51.402;0.016;2023-12-28T09:38:46;54.10;;;8.02;;
44774;SDS011;31340;51.402;0.016;2023-12-28T09:41:16;49.33;;;7.82;;
44774;SDS011;31340;51.402;0.016;2023-12-28T09:43:57;57.47;;;10.63;;
44774;SDS011;31340;51.402;0.016;2023-12-28T09:46:31;49.85;;;8.30;;
44774;SDS011;31340;51.402;0.016;2023-12-28T09:49:01;58.45;;;7.47;;
44774;SDS011;31340;51.402;0.016;2023-12-28T09:51:35;42.03;;;7.47;;
44774;SDS011;31340;51.402;0.016;2023-12-28T09:54:05;56.85;;;8.00;;
44774;SDS011;31340;51.402;0.016;2023-12-28T09:56:37;50.35;;;7.68;;
44774;SDS011;31340;51.402;0.016;2023-12-28T09:59:07;54.08;;;8.45;;
44774;SDS011;31340;51.402;0.016;2023-12-28T10:01:36;50.85;;;7.75;;
44774;SDS011;31340;51.402;0.016;2023-12-28T10:04:08;56.45;;;8.52;;
44774;SDS011;31340;51.402;0.016;2023-12-28T10:06:39;50.15;;;8.85;;
44774;SDS011;31340;51.402;0.016;2023-12-28T10:09:10;42.28;;;7.55;;
44774;SDS011;31340;51.402;0.016;2023-12-28T10:11:38;43.80;;;7.78;;
44774;SDS011;31340;51.402;0.016;2023-12-28T10:14:07;39.50;;;7.55;;
44774;SDS011;31340;51.402;0.016;2023-12-28T10:16:39;44.08;;;6.97;;
44774;SDS011;31340;51.402;0.016;2023-12-28T10:19:10;53.55;;;8.02;;
44774;SDS011;31340;51.402;0.016;2023-12-28T10:21:39;44.45;;;6.72;;
44774;SDS011;31340;51.402;0.016;2023-12-28T10:24:10;47.10;;;7.38;;
44774;SDS011;31340;51.402;0.016;2023-12-28T10:26:40;52.33;;;7.53;;
44774;SDS011;31340;51.402;0.016;2023-12-28T10:29:24;33.47;;;7.00;;
44774;SDS011;31340;51.402;0.016;2023-12-28T10:31:55;49.92;;;7.72;;
44774;SDS011;31340;51.402;0.016;2023-12-28T10:34:23;49.80;;;7.20;;
44774;SDS011;31340;51.402;0.016;2023-12-28T10:36:54;47.47;;;7.25;;
44774;SDS011;31340;51.402;0.016;2023-12-28T10:39:28;37.67;;;5.75;;
44774;SDS011;31340;51.402;0.016;2023-12-28T10:42:03;44.38;;;7.43;;
44774;SDS011;31340;51.402;0.016;2023-12-28T10:44:37;50.38;;;7.78;;
44774;SDS011;31340;51.402;0.016;2023-12-28T10:47:11;42.17;;;6.13;;
44774;SDS011;31340;51.402;0.016;2023-12-28T10:49:47;45.00;;;7.75;;
44774;SDS011;31340;51.402;0.016;2023-12-28T10:52:21;46.65;;;7.00;;
44774;SDS011;31340;51.402;0.016;2023-12-28T10:58:44;50.05;;;8.18;;
44774;SDS011;31340;51.402;0.016;2023-12-28T11:01:40;42.42;;;6.97;;
44774;SDS011;31340;51.402;0.016;2023-12-28T11:04:17;51.35;;;7.07;;
44774;SDS011;31340;51.402;0.016;2023-12-28T11:06:56;48.40;;;7.18;;
44774;SDS011;31340;51.402;0.016;2023-12-28T11:09:27;52.33;;;7.65;;
44774;SDS011;31340;51.402;0.016;2023-12-28T11:11:58;45.20;;;7.72;;
44774;SDS011;31340;51.402;0.016;2023-12-28T11:14:33;42.17;;;7.25;;
44774;SDS011;31340;51.402;0.016;2023-12-28T11:17:01;42.58;;;6.82;;
44774;SDS011;31340;51.402;0.016;2023-12-28T11:19:32;42.13;;;7.05;;
44774;SDS011;31340;51.402;0.016;2023-12-28T11:22:05;43.17;;;7.53;;
44774;SDS011;31340;51.402;0.016;2023-12-28T11:24:35;33.25;;;6.15;;
44774;SDS011;31340;51.402;0.016;2023-12-28T11:27:04;37.10;;;5.80;;
44774;SDS011;31340;51.402;0.016;2023-12-28T11:29:38;46.80;;;6.90;;
44774;SDS011;31340;51.402;0.016;2023-12-28T11:34:38;32.75;;;5.55;;
44774;SDS011;31340;51.402;0.016;2023-12-28T11:37:12;30.98;;;5.47;;
44774;SDS011;31340;51.402;0.016;2023-12-28T11:39:46;42.38;;;7.13;;
44774;SDS011;31340;51.402;0.016;2023-12-28T11:42:20;39.28;;;7.13;;
44774;SDS011;31340;51.402;0.016;2023-12-28T11:44:54;39.53;;;6.90;;
44774;SDS011;31340;51.402;0.016;2023-12-28T11:47:24;44.67;;;7.53;;
44774;SDS011;31340;51.402;0.016;2023-12-28T11:50:06;45.85;;;5.72;;
44774;SDS011;31340;51.402;0.016;2023-12-28T11:52:34;40.80;;;6.00;;
44774;SDS011;31340;51.402;0.016;2023-12-28T11:55:03;32.88;;;5.93;;
44774;SDS011;31340;51.402;0.016;2023-12-28T11:57:36;36.58;;;5.78;;
44774;SDS011;31340;51.402;0.016;2023-12-28T12:00:05;37.53;;;6.10;;
44774;SDS011;31340;51.402;0.016;2023-12-28T12:02:35;32.88;;;5.55;;
44774;SDS011;31340;51.402;0.016;2023-12-28T12:05:06;31.15;;;5.15;;
44774;SDS011;31340;51.402;0.016;2023-12-28T12:10:04;31.42;;;5.68;;
44774;SDS011;31340;51.402;0.016;2023-12-28T12:12:37;34.53;;;6.15;;
44774;SDS011;31340;51.402;0.016;2023-12-28T12:15:08;39.67;;;6.35;;
44774;SDS011;31340;51.402;0.016;2023-12-28T12:17:39;34.72;;;5.40;;
44774;SDS011;31340;51.402;0.016;2023-12-28T12:20:10;40.05;;;5.95;;
44774;SDS011;31340;51.402;0.016;2023-12-28T12:22:38;36.65;;;5.45;;
44774;SDS011;31340;51.402;0.016;2023-12-28T12:25:10;38.58;;;5.78;;
44774;SDS011;31340;51.402;0.016;2023-12-28T12:27:40;39.25;;;6.28;;
44774;SDS011;31340;51.402;0.016;2023-12-28T12:30:08;31.73;;;5.60;;
44774;SDS011;31340;51.402;0.016;2023-12-28T12:32:38;42.42;;;6.57;;
44774;SDS011;31340;51.402;0.016;2023-12-28T12:35:12;32.50;;;6.55;;
44774;SDS011;31340;51.402;0.016;2023-12-28T12:40:17;38.95;;;6.57;;
44774;SDS011;31340;51.402;0.016;2023-12-28T12:42:53;43.72;;;6.50;;
44774;SDS011;31340;51.402;0.016;2023-12-28T12:45:22;48.33;;;7.05;;
44774;SDS011;31340;51.402;0.016;2023-12-28T12:47:51;46.42;;;7.25;;
44774;SDS011;31340;51.402;0.016;2023-12-28T12:50:23;43.38;;;6.43;;
44774;SDS011;31340;51.402;0.016;2023-12-28T12:52:52;35.17;;;5.78;;
44774;SDS011;31340;51.402;0.016;2023-12-28T12:55:25;39.08;;;6.63;;
44774;SDS011;31340;51.402;0.016;2023-12-28T12:57:53;31.05;;;5.32;;
44774;SDS011;31340;51.402;0.016;2023-12-28T13:00:33;33.67;;;5.97;;
44774;SDS011;31340;51.402;0.016;2023-12-28T13:03:03;38.83;;;5.97;;
44774;SDS011;31340;51.402;0.016;2023-12-28T13:05:35;26.15;;;4.57;;
44774;SDS011;31340;51.402;0.016;2023-12-28T13:08:06;33.20;;;5.13;;
44774;SDS011;31340;51.402;0.016;2023-12-28T13:10:34;31.75;;;4.30;;
44774;SDS011;31340;51.402;0.016;2023-12-28T13:13:07;41.17;;;5.05;;
44774;SDS011;31340;51.402;0.016;2023-12-28T13:15:35;25.92;;;4.68;;
44774;SDS011;31340;51.402;0.016;2023-12-28T13:18:07;28.77;;;4.97;;
44774;SDS011;31340;51.402;0.016;2023-12-28T13:20:40;22.70;;;4.40;;
44774;SDS011;31340;51.402;0.016;2023-12-28T13:23:10;28.87;;;5.00;;
44774;SDS011;31340;51.402;0.016;2023-12-28T13:25:39;35.25;;;5.50;;
44774;SDS011;31340;51.402;0.016;2023-12-28T13:28:11;29.45;;;5.18;;
44774;SDS011;31340;51.402;0.016;2023-12-28T13:30:40;30.48;;;5.40;;
44774;SDS011;31340;51.402;0.016;2023-12-28T13:33:08;28.65;;;6.20;;
44774;SDS011;31340;51.402;0.016;2023-12-28T13:35:36;39.60;;;5.28;;
44774;SDS011;31340;51.402;0.016;2023-12-28T13:38:04;35.60;;;5.45;;
44774;SDS011;31340;51.402;0.016;2023-12-28T13:40:32;27.90;;;4.53;;
44774;SDS011;31340;51.402;0.016;2023-12-28T13:43:00;37.45;;;6.13;;
44774;SDS011;31340;51.402;0.016;2023-12-28T13:45:29;33.13;;;5.90;;
44774;SDS011;31340;51.402;0.016;2023-12-28T13:47:57;28.25;;;5.63;;
44774;SDS011;31340;51.402;0.016;2023-12-28T13:50:25;32.72;;;5.90;;
44774;SDS011;31340;51.402;0.016;2023-12-28T13:52:53;35.65;;;5.68;;
44774;SDS011;31340;51.402;0.016;2023-12-28T13:55:21;36.60;;;4.90;;
44774;SDS011;31340;51.402;0.016;2023-12-28T13:57:58;28.80;;;5.40;;
44774;SDS011;31340;51.402;0.016;2023-12-28T14:00:26;42.50;;;6.10;;
44774;SDS011;31340;51.402;0.016;2023-12-28T14:02:55;28.38;;;5.82;;
44774;SDS011;31340;51.402;0.016;2023-12-28T14:05:24;35.15;;;5.63;;
44774;SDS011;31340;51.402;0.016;2023-12-28T14:07:53;38.42;;;6.15;;
44774;SDS011;31340;51.402;0.016;2023-12-28T14:10:21;33.03;;;6.50;;
44774;SDS011;31340;51.402;0.016;2023-12-28T14:12:52;28.02;;;5.93;;
44774;SDS011;31340;51.402;0.016;2023-12-28T14:15:20;31.13;;;4.80;;
44774;SDS011;31340;51.402;0.016;2023-12-28T14:17:50;41.50;;;6.32;;
44774;SDS011;31340;51.402;0.016;2023-12-28T14:20:21;38.45;;;5.95;;
44774;SDS011;31340;51.402;0.016;2023-12-28T14:22:52;36.22;;;6.22;;
44774;SDS011;31340;51.402;0.016;2023-12-28T14:25:20;31.88;;;5.88;;
44774;SDS011;31340;51.402;0.016;2023-12-28T14:27:48;33.67;;;6.22;;
44774;SDS011;31340;51.402;0.016;2023-12-28T14:32:48;30.58;;;5.82;;
44774;SDS011;31340;51.402;0.016;2023-12-28T14:35:29;35.35;;;5.53;;
44774;SDS011;31340;51.402;0.016;2023-12-28T14:37:57;31.52;;;5.07;;
44774;SDS011;31340;51.402;0.016;2023-12-28T14:40:33;21.98;;;4.68;;
44774;SDS011;31340;51.402;0.016;2023-12-28T14:43:06;33.70;;;6.18;;
44774;SDS011;31340;51.402;0.016;2023-12-28T14:45:52;24.88;;;5.18;;
44774;SDS011;31340;51.402;0.016;2023-12-28T14:48:20;26.23;;;4.00;;
44774;SDS011;31340;51.402;0.016;2023-12-28T14:50:48;22.92;;;4.60;;
44774;SDS011;31340;51.402;0.016;2023-12-28T14:53:17;31.98;;;5.00;;
44774;SDS011;31340;51.402;0.016;2023-12-28T14:55:46;22.95;;;4.10;;
44774;SDS011;31340;51.402;0.016;2023-12-28T14:58:19;27.70;;;4.07;;
44774;SDS011;31340;51.402;0.016;2023-12-28T15:00:56;27.53;;;5.17;;
44774;SDS011;31340;51.402;0.016;2023-12-28T15:03:24;33.00;;;4.60;;
44774;SDS011;31340;51.402;0.016;2023-12-28T15:05:52;30.20;;;4.68;;
44774;SDS011;31340;51.402;0.016;2023-12-28T15:08:24;30.50;;;4.57;;
44774;SDS011;31340;51.402;0.016;2023-12-28T15:10:55;23.02;;;4.20;;
44774;SDS011;31340;51.402;0.016;2023-12-28T15:13:25;22.35;;;4.68;;
44774;SDS011;31340;51.402;0.016;2023-12-28T15:15:57;20.23;;;4.40;;
44774;SDS011;31340;51.402;0.016;2023-12-28T15:18:25;33.22;;;5.30;;
44774;SDS011;31340;51.402;0.016;2023-12-28T15:20:54;29.80;;;5.47;;
44774;SDS011;31340;51.402;0.016;2023-12-28T15:23:22;31.27;;;4.75;;
44774;SDS011;31340;51.402;0.016;2023-12-28T15:25:53;27.58;;;5.25;;
44774;SDS011;31340;51.402;0.016;2023-12-28T15:28:24;33.65;;;5.75;;